DLH9PZ EFHK-EDDF
Flight info
| Callsign | DLH9PZ |
|---|---|
| Flight time | 2h 9m |
| Altitude | 34000 |
| Route | VALOX Y117 ROSAX DCT DEREX DCT GORPI DCT PESEL DCT KOSIX DCT NIMAB T171 LASTO T178 KERAX KERAX5D |
| Aircraft | A321/M-SDE3FGHIRWY/LB1 |
Departure
| Time | 2026-04-15 04:25 |
|---|---|
| Airport | Helsinki Vantaa Airport (EFHK) |
Arrival
| Time | 2026-04-15 06:34 |
|---|---|
| Airport | Frankfurt Main Airport (EDDF) |
| Time | Latitude | Longitude | Altitude | Speed | Heading |
|---|---|---|---|---|---|
| 2026-04-15 03:45 | 60.31874 | 24.96540 | 167 ft | 0 kts | 137° |
| 2026-04-15 04:16 | 60.31881 | 24.96527 | 166 ft | 4 kts | 139° |
| 2026-04-15 04:16 | 60.31902 | 24.96495 | 166 ft | 4 kts | 155° |
| 2026-04-15 04:16 | 60.31925 | 24.96485 | 166 ft | 4 kts | 207° |
| 2026-04-15 04:16 | 60.31942 | 24.96516 | 166 ft | 4 kts | 227° |
| 2026-04-15 04:17 | 60.31955 | 24.96544 | 166 ft | 0 kts | 227° |
| 2026-04-15 04:19 | 60.31949 | 24.96531 | 166 ft | 3 kts | 227° |
| 2026-04-15 04:19 | 60.31924 | 24.96476 | 166 ft | 7 kts | 227° |
| 2026-04-15 04:19 | 60.31889 | 24.96400 | 166 ft | 8 kts | 227° |
| 2026-04-15 04:19 | 60.31854 | 24.96252 | 166 ft | 14 kts | 266° |
| 2026-04-15 04:20 | 60.31896 | 24.96087 | 167 ft | 14 kts | 316° |
| 2026-04-15 04:20 | 60.31964 | 24.95962 | 171 ft | 11 kts | 318° |
| 2026-04-15 04:20 | 60.32029 | 24.95843 | 174 ft | 15 kts | 317° |
| 2026-04-15 04:20 | 60.32108 | 24.95695 | 173 ft | 17 kts | 317° |
| 2026-04-15 04:21 | 60.32196 | 24.95534 | 174 ft | 17 kts | 317° |
| 2026-04-15 04:21 | 60.32282 | 24.95376 | 176 ft | 16 kts | 317° |
| 2026-04-15 04:21 | 60.32381 | 24.95239 | 177 ft | 19 kts | 338° |
| 2026-04-15 04:21 | 60.32506 | 24.95163 | 180 ft | 18 kts | 343° |
| 2026-04-15 04:22 | 60.32629 | 24.95086 | 180 ft | 19 kts | 342° |
| 2026-04-15 04:22 | 60.32758 | 24.94999 | 177 ft | 21 kts | 342° |
| 2026-04-15 04:22 | 60.32897 | 24.94897 | 175 ft | 19 kts | 330° |
| 2026-04-15 04:22 | 60.32983 | 24.94748 | 178 ft | 16 kts | 317° |
| 2026-04-15 04:23 | 60.33043 | 24.94595 | 184 ft | 12 kts | 285° |
| 2026-04-15 04:23 | 60.33049 | 24.94408 | 188 ft | 13 kts | 272° |
| 2026-04-15 04:23 | 60.33042 | 24.94254 | 188 ft | 10 kts | 245° |
| 2026-04-15 04:23 | 60.33017 | 24.94180 | 194 ft | 0 kts | 229° |
| 2026-04-15 04:24 | 60.33003 | 24.94147 | 195 ft | 17 kts | 229° |
| 2026-04-15 04:24 | 60.32738 | 24.93556 | 181 ft | 94 kts | 227° |
| 2026-04-15 04:24 | 60.32147 | 24.92251 | 162 ft | 156 kts | 228° |
| 2026-04-15 04:24 | 60.31351 | 24.90455 | 574 ft | 174 kts | 231° |
| 2026-04-15 04:25 | 60.30571 | 24.88600 | 1320 ft | 174 kts | 234° |
| 2026-04-15 04:25 | 60.30010 | 24.86393 | 1733 ft | 186 kts | 253° |
| 2026-04-15 04:25 | 60.29840 | 24.83669 | 1949 ft | 207 kts | 274° |
| 2026-04-15 04:25 | 60.30144 | 24.80684 | 2108 ft | 229 kts | 284° |
| 2026-04-15 04:26 | 60.30248 | 24.77372 | 2339 ft | 248 kts | 258° |
| 2026-04-15 04:26 | 60.29637 | 24.74016 | 2808 ft | 259 kts | 246° |
| 2026-04-15 04:26 | 60.28936 | 24.70639 | 3511 ft | 262 kts | 247° |
| 2026-04-15 04:26 | 60.28235 | 24.67229 | 4231 ft | 265 kts | 246° |
| 2026-04-15 04:27 | 60.27527 | 24.63778 | 4956 ft | 268 kts | 246° |
| 2026-04-15 04:27 | 60.26812 | 24.60293 | 5654 ft | 270 kts | 246° |
| 2026-04-15 04:27 | 60.26090 | 24.56776 | 6347 ft | 273 kts | 245° |
| 2026-04-15 04:27 | 60.25341 | 24.53236 | 7023 ft | 276 kts | 240° |
| 2026-04-15 04:28 | 60.24256 | 24.50071 | 7673 ft | 275 kts | 224° |
| 2026-04-15 04:28 | 60.22782 | 24.47641 | 8344 ft | 275 kts | 208° |
| 2026-04-15 04:28 | 60.21039 | 24.46100 | 9009 ft | 274 kts | 196° |
| 2026-04-15 04:28 | 60.19221 | 24.44884 | 9687 ft | 277 kts | 196° |
| 2026-04-15 04:29 | 60.17390 | 24.43649 | 10353 ft | 279 kts | 196° |
| 2026-04-15 04:29 | 60.15515 | 24.42380 | 10693 ft | 294 kts | 197° |
| 2026-04-15 04:29 | 60.13514 | 24.41025 | 10836 ft | 313 kts | 197° |
| 2026-04-15 04:29 | 60.11388 | 24.39580 | 10959 ft | 332 kts | 197° |
| 2026-04-15 04:30 | 60.09146 | 24.38055 | 11085 ft | 349 kts | 197° |
| 2026-04-15 04:30 | 60.06792 | 24.36461 | 11219 ft | 365 kts | 197° |
| 2026-04-15 04:30 | 60.04357 | 24.34813 | 11557 ft | 372 kts | 197° |
| 2026-04-15 04:30 | 60.01924 | 24.33162 | 12039 ft | 376 kts | 197° |
| 2026-04-15 04:31 | 59.99439 | 24.31477 | 12560 ft | 379 kts | 197° |
| 2026-04-15 04:31 | 59.96931 | 24.29783 | 13086 ft | 382 kts | 197° |
| 2026-04-15 04:31 | 59.94405 | 24.28079 | 13587 ft | 385 kts | 197° |
| 2026-04-15 04:31 | 59.91854 | 24.26363 | 14082 ft | 388 kts | 197° |
| 2026-04-15 04:32 | 59.89289 | 24.24642 | 14531 ft | 391 kts | 197° |
| 2026-04-15 04:32 | 59.86703 | 24.22910 | 14978 ft | 393 kts | 197° |
| 2026-04-15 04:32 | 59.84107 | 24.21173 | 15438 ft | 395 kts | 197° |
| 2026-04-15 04:32 | 59.81499 | 24.19430 | 15902 ft | 397 kts | 197° |
| 2026-04-15 04:33 | 59.78875 | 24.17679 | 16348 ft | 398 kts | 197° |
| 2026-04-15 04:33 | 59.76241 | 24.15927 | 16784 ft | 400 kts | 197° |
| 2026-04-15 04:33 | 59.73638 | 24.13937 | 17214 ft | 404 kts | 204° |
| 2026-04-15 04:33 | 59.71202 | 24.11115 | 17631 ft | 408 kts | 213° |
| 2026-04-15 04:34 | 59.68899 | 24.07825 | 18066 ft | 410 kts | 214° |
| 2026-04-15 04:34 | 59.66570 | 24.04517 | 18449 ft | 413 kts | 214° |
| 2026-04-15 04:34 | 59.64224 | 24.01209 | 18831 ft | 416 kts | 214° |
| 2026-04-15 04:34 | 59.61861 | 23.97890 | 19180 ft | 418 kts | 214° |
| 2026-04-15 04:35 | 59.59482 | 23.94550 | 19522 ft | 421 kts | 214° |
| 2026-04-15 04:35 | 59.57088 | 23.91187 | 19867 ft | 423 kts | 214° |
| 2026-04-15 04:35 | 59.54683 | 23.87810 | 20210 ft | 426 kts | 214° |
| 2026-04-15 04:35 | 59.52263 | 23.84416 | 20567 ft | 428 kts | 215° |
| 2026-04-15 04:36 | 59.49833 | 23.81015 | 20912 ft | 430 kts | 215° |
| 2026-04-15 04:36 | 59.47469 | 23.77374 | 21220 ft | 433 kts | 223° |
| 2026-04-15 04:36 | 59.45373 | 23.73103 | 21524 ft | 436 kts | 228° |
| 2026-04-15 04:36 | 59.43325 | 23.68694 | 21857 ft | 438 kts | 228° |
| 2026-04-15 04:37 | 59.41261 | 23.64280 | 22193 ft | 440 kts | 228° |
| 2026-04-15 04:37 | 59.39179 | 23.59854 | 22500 ft | 443 kts | 228° |
| 2026-04-15 04:37 | 59.37082 | 23.55416 | 22806 ft | 445 kts | 228° |
| 2026-04-15 04:37 | 59.34969 | 23.50948 | 23109 ft | 447 kts | 228° |
| 2026-04-15 04:38 | 59.32851 | 23.46470 | 23415 ft | 450 kts | 228° |
| 2026-04-15 04:38 | 59.30716 | 23.41965 | 23729 ft | 452 kts | 229° |
| 2026-04-15 04:38 | 59.28572 | 23.37447 | 24021 ft | 454 kts | 229° |
| 2026-04-15 04:38 | 59.26417 | 23.32915 | 24262 ft | 456 kts | 229° |
| 2026-04-15 04:39 | 59.24252 | 23.28373 | 24511 ft | 458 kts | 229° |
| 2026-04-15 04:39 | 59.22079 | 23.23820 | 24757 ft | 458 kts | 229° |
| 2026-04-15 04:39 | 59.19933 | 23.19328 | 25004 ft | 459 kts | 229° |
| 2026-04-15 04:39 | 59.17751 | 23.14770 | 25230 ft | 460 kts | 229° |
| 2026-04-15 04:40 | 59.15562 | 23.10207 | 25447 ft | 461 kts | 229° |
| 2026-04-15 04:40 | 59.13365 | 23.05635 | 25656 ft | 463 kts | 229° |
| 2026-04-15 04:40 | 59.11166 | 23.01064 | 25906 ft | 462 kts | 229° |
| 2026-04-15 04:40 | 59.08964 | 22.96507 | 26194 ft | 461 kts | 229° |
| 2026-04-15 04:41 | 59.06768 | 22.91980 | 26480 ft | 460 kts | 229° |
| 2026-04-15 04:41 | 59.04571 | 22.87464 | 26813 ft | 458 kts | 228° |
| 2026-04-15 04:41 | 59.02388 | 22.82982 | 27148 ft | 456 kts | 228° |
| 2026-04-15 04:41 | 59.00210 | 22.78515 | 27467 ft | 454 kts | 227° |
| 2026-04-15 04:42 | 58.98044 | 22.74078 | 27795 ft | 453 kts | 227° |
| 2026-04-15 04:42 | 58.95881 | 22.69653 | 28078 ft | 452 kts | 227° |
| 2026-04-15 04:42 | 58.93723 | 22.65245 | 28359 ft | 451 kts | 227° |
| 2026-04-15 04:42 | 58.91562 | 22.60838 | 28646 ft | 451 kts | 227° |
| 2026-04-15 04:43 | 58.89404 | 22.56448 | 28921 ft | 450 kts | 227° |
| 2026-04-15 04:43 | 58.87246 | 22.52073 | 29178 ft | 450 kts | 227° |
| 2026-04-15 04:43 | 58.85085 | 22.47707 | 29453 ft | 449 kts | 227° |
| 2026-04-15 04:43 | 58.82927 | 22.43354 | 29732 ft | 449 kts | 227° |
| 2026-04-15 04:44 | 58.80772 | 22.39008 | 30001 ft | 448 kts | 226° |
| 2026-04-15 04:44 | 58.78618 | 22.34667 | 30279 ft | 447 kts | 226° |
| 2026-04-15 04:44 | 58.76473 | 22.30352 | 30558 ft | 446 kts | 226° |
| 2026-04-15 04:44 | 58.74330 | 22.26042 | 30790 ft | 445 kts | 226° |
| 2026-04-15 04:45 | 58.72188 | 22.21737 | 31007 ft | 445 kts | 226° |
| 2026-04-15 04:45 | 58.70046 | 22.17449 | 31212 ft | 445 kts | 226° |
| 2026-04-15 04:45 | 58.67899 | 22.13166 | 31419 ft | 444 kts | 226° |
| 2026-04-15 04:45 | 58.65755 | 22.08895 | 31629 ft | 444 kts | 225° |
| 2026-04-15 04:46 | 58.63608 | 22.04624 | 31832 ft | 444 kts | 225° |
| 2026-04-15 04:46 | 58.59312 | 21.96116 | 32245 ft | 444 kts | 225° |
| 2026-04-15 04:46 | 58.57164 | 21.91878 | 32448 ft | 443 kts | 225° |
| 2026-04-15 04:47 | 58.55016 | 21.87645 | 32664 ft | 443 kts | 225° |
| 2026-04-15 04:47 | 58.52871 | 21.83427 | 32862 ft | 442 kts | 225° |
| 2026-04-15 04:47 | 58.50725 | 21.79213 | 33064 ft | 442 kts | 225° |
| 2026-04-15 04:47 | 58.48576 | 21.75002 | 33247 ft | 442 kts | 225° |
| 2026-04-15 04:48 | 58.46430 | 21.70800 | 33439 ft | 442 kts | 225° |
| 2026-04-15 04:48 | 58.44310 | 21.66654 | 33612 ft | 442 kts | 225° |
| 2026-04-15 04:48 | 58.42162 | 21.62457 | 33813 ft | 442 kts | 224° |
| 2026-04-15 04:48 | 58.40016 | 21.58279 | 34021 ft | 441 kts | 224° |
| 2026-04-15 04:49 | 58.37874 | 21.54120 | 34222 ft | 440 kts | 224° |
| 2026-04-15 04:49 | 58.35724 | 21.49956 | 34326 ft | 441 kts | 224° |
| 2026-04-15 04:49 | 58.31403 | 21.41610 | 34326 ft | 442 kts | 224° |
| 2026-04-15 04:50 | 58.27087 | 21.33280 | 34326 ft | 442 kts | 224° |
| 2026-04-15 04:50 | 58.22758 | 21.24961 | 34320 ft | 442 kts | 224° |
| 2026-04-15 04:51 | 58.18425 | 21.16682 | 34321 ft | 442 kts | 224° |
| 2026-04-15 04:51 | 58.14083 | 21.08417 | 34317 ft | 443 kts | 224° |
| 2026-04-15 04:52 | 58.09742 | 21.00153 | 34326 ft | 442 kts | 224° |
| 2026-04-15 04:52 | 58.05396 | 20.91933 | 34325 ft | 442 kts | 224° |
| 2026-04-15 04:53 | 58.01044 | 20.83734 | 34324 ft | 442 kts | 224° |
| 2026-04-15 04:53 | 57.96687 | 20.75560 | 34325 ft | 442 kts | 224° |
| 2026-04-15 04:54 | 57.92330 | 20.67410 | 34319 ft | 442 kts | 224° |
| 2026-04-15 04:54 | 57.87972 | 20.59279 | 34315 ft | 441 kts | 224° |
| 2026-04-15 04:55 | 57.83612 | 20.51171 | 34317 ft | 441 kts | 224° |
| 2026-04-15 04:55 | 57.79250 | 20.43093 | 34323 ft | 441 kts | 224° |
| 2026-04-15 04:56 | 57.74907 | 20.35088 | 34314 ft | 441 kts | 224° |
| 2026-04-15 04:56 | 57.70535 | 20.27046 | 34309 ft | 441 kts | 224° |
| 2026-04-15 04:57 | 57.66147 | 20.19022 | 34299 ft | 441 kts | 224° |
| 2026-04-15 04:57 | 57.61765 | 20.11011 | 34292 ft | 441 kts | 224° |
| 2026-04-15 04:58 | 57.57381 | 20.03011 | 34291 ft | 441 kts | 224° |
| 2026-04-15 04:58 | 57.52994 | 19.95022 | 34288 ft | 441 kts | 224° |
| 2026-04-15 04:59 | 57.48595 | 19.87057 | 34288 ft | 441 kts | 223° |
| 2026-04-15 04:59 | 57.44190 | 19.79125 | 34291 ft | 440 kts | 223° |
| 2026-04-15 05:00 | 57.39792 | 19.71236 | 34291 ft | 439 kts | 223° |
| 2026-04-15 05:00 | 57.35402 | 19.63384 | 34291 ft | 438 kts | 223° |
| 2026-04-15 05:01 | 57.31759 | 19.56877 | 34289 ft | 438 kts | 223° |
| 2026-04-15 05:01 | 57.26665 | 19.47806 | 34283 ft | 437 kts | 223° |
| 2026-04-15 05:02 | 57.22281 | 19.40025 | 34283 ft | 437 kts | 223° |
| 2026-04-15 05:02 | 57.18600 | 19.33528 | 34280 ft | 437 kts | 223° |
| 2026-04-15 05:03 | 57.14199 | 19.25797 | 34288 ft | 437 kts | 223° |
| 2026-04-15 05:03 | 57.09791 | 19.18069 | 34267 ft | 438 kts | 223° |
| 2026-04-15 05:04 | 57.05410 | 19.10403 | 34261 ft | 438 kts | 223° |
| 2026-04-15 05:04 | 57.00994 | 19.02692 | 34254 ft | 438 kts | 223° |
| 2026-04-15 05:05 | 56.96567 | 18.95002 | 34255 ft | 438 kts | 223° |
| 2026-04-15 05:05 | 56.92132 | 18.87334 | 34259 ft | 439 kts | 223° |
| 2026-04-15 05:06 | 56.87688 | 18.79675 | 34254 ft | 439 kts | 223° |
| 2026-04-15 05:06 | 56.83241 | 18.72021 | 34260 ft | 439 kts | 223° |
| 2026-04-15 05:07 | 56.78791 | 18.64389 | 34249 ft | 439 kts | 223° |
| 2026-04-15 05:07 | 56.74334 | 18.56792 | 34261 ft | 438 kts | 223° |
| 2026-04-15 05:08 | 56.69877 | 18.49226 | 34250 ft | 438 kts | 223° |
| 2026-04-15 05:08 | 56.65425 | 18.41668 | 34261 ft | 438 kts | 223° |
| 2026-04-15 05:09 | 56.60970 | 18.34132 | 34263 ft | 438 kts | 223° |
| 2026-04-15 05:09 | 56.56508 | 18.26622 | 34259 ft | 437 kts | 223° |
| 2026-04-15 05:10 | 56.52047 | 18.19140 | 34266 ft | 437 kts | 223° |
| 2026-04-15 05:10 | 56.47579 | 18.11662 | 34265 ft | 438 kts | 223° |
| 2026-04-15 05:11 | 56.43101 | 18.04193 | 34254 ft | 438 kts | 223° |
| 2026-04-15 05:11 | 56.38614 | 17.96741 | 34252 ft | 438 kts | 223° |
| 2026-04-15 05:12 | 56.34123 | 17.89302 | 34228 ft | 438 kts | 224° |
| 2026-04-15 05:12 | 56.29662 | 17.81917 | 34236 ft | 438 kts | 224° |
| 2026-04-15 05:13 | 56.25161 | 17.74516 | 34252 ft | 438 kts | 224° |
| 2026-04-15 05:13 | 56.20650 | 17.67144 | 34252 ft | 438 kts | 224° |
| 2026-04-15 05:14 | 56.16139 | 17.59780 | 34258 ft | 438 kts | 224° |
| 2026-04-15 05:14 | 56.11627 | 17.52425 | 34240 ft | 438 kts | 224° |
| 2026-04-15 05:15 | 56.07115 | 17.45103 | 34251 ft | 438 kts | 224° |
| 2026-04-15 05:15 | 56.02607 | 17.37801 | 34255 ft | 437 kts | 224° |
| 2026-04-15 05:16 | 55.98093 | 17.30523 | 34259 ft | 437 kts | 224° |
| 2026-04-15 05:16 | 55.93577 | 17.23266 | 34257 ft | 437 kts | 224° |
| 2026-04-15 05:17 | 55.89062 | 17.16022 | 34249 ft | 436 kts | 225° |
| 2026-04-15 05:17 | 55.84538 | 17.08811 | 34254 ft | 437 kts | 225° |
| 2026-04-15 05:18 | 55.80010 | 17.01607 | 34254 ft | 437 kts | 225° |
| 2026-04-15 05:18 | 55.75482 | 16.94409 | 34254 ft | 437 kts | 225° |
| 2026-04-15 05:19 | 55.70943 | 16.87239 | 34257 ft | 437 kts | 224° |
| 2026-04-15 05:19 | 55.66396 | 16.80083 | 34229 ft | 437 kts | 225° |
| 2026-04-15 05:20 | 55.61857 | 16.72950 | 34257 ft | 436 kts | 225° |
| 2026-04-15 05:20 | 55.57319 | 16.65837 | 34261 ft | 436 kts | 225° |
| 2026-04-15 05:21 | 55.52779 | 16.58748 | 34263 ft | 435 kts | 225° |
| 2026-04-15 05:21 | 55.48239 | 16.51675 | 34265 ft | 435 kts | 225° |
| 2026-04-15 05:22 | 55.43692 | 16.44635 | 34250 ft | 435 kts | 225° |
| 2026-04-15 05:22 | 55.39140 | 16.37613 | 34263 ft | 435 kts | 225° |
| 2026-04-15 05:23 | 55.34595 | 16.30601 | 34262 ft | 435 kts | 225° |
| 2026-04-15 05:23 | 55.30051 | 16.23604 | 34269 ft | 435 kts | 225° |
| 2026-04-15 05:24 | 55.25497 | 16.16626 | 34266 ft | 435 kts | 225° |
| 2026-04-15 05:24 | 55.20937 | 16.09661 | 34232 ft | 435 kts | 225° |
| 2026-04-15 05:25 | 55.16367 | 16.02708 | 34239 ft | 436 kts | 225° |
| 2026-04-15 05:25 | 55.11779 | 15.95768 | 34250 ft | 436 kts | 225° |
| 2026-04-15 05:26 | 55.07185 | 15.88825 | 34254 ft | 437 kts | 225° |
| 2026-04-15 05:26 | 55.02593 | 15.81893 | 34265 ft | 437 kts | 225° |
| 2026-04-15 05:27 | 54.97993 | 15.74964 | 34267 ft | 437 kts | 225° |
| 2026-04-15 05:27 | 54.93383 | 15.68066 | 34276 ft | 437 kts | 225° |
| 2026-04-15 05:28 | 54.90953 | 15.64863 | 34427 ft | 440 kts | 217° |
| 2026-04-15 05:28 | 54.88330 | 15.62220 | 34570 ft | 442 kts | 214° |
| 2026-04-15 05:28 | 54.85652 | 15.59606 | 34702 ft | 442 kts | 214° |
| 2026-04-15 05:28 | 54.82969 | 15.56985 | 34828 ft | 442 kts | 214° |
| 2026-04-15 05:29 | 54.80286 | 15.54364 | 34943 ft | 443 kts | 213° |
| 2026-04-15 05:29 | 54.77599 | 15.51748 | 35044 ft | 443 kts | 213° |
| 2026-04-15 05:29 | 54.74911 | 15.49135 | 35157 ft | 444 kts | 213° |
| 2026-04-15 05:29 | 54.72216 | 15.46518 | 35276 ft | 444 kts | 213° |
| 2026-04-15 05:30 | 54.69519 | 15.43905 | 35399 ft | 445 kts | 213° |
| 2026-04-15 05:30 | 54.66819 | 15.41290 | 35512 ft | 445 kts | 213° |
| 2026-04-15 05:30 | 54.64116 | 15.38675 | 35649 ft | 445 kts | 213° |
| 2026-04-15 05:30 | 54.61410 | 15.36061 | 35759 ft | 446 kts | 213° |
| 2026-04-15 05:31 | 54.58702 | 15.33450 | 35881 ft | 446 kts | 213° |
| 2026-04-15 05:31 | 54.55991 | 15.30843 | 36006 ft | 446 kts | 213° |
| 2026-04-15 05:31 | 54.50562 | 15.25644 | 36251 ft | 447 kts | 213° |
| 2026-04-15 05:32 | 54.45107 | 15.20421 | 36276 ft | 450 kts | 213° |
| 2026-04-15 05:32 | 54.39624 | 15.15183 | 36280 ft | 451 kts | 213° |
| 2026-04-15 05:33 | 54.34133 | 15.09953 | 36282 ft | 451 kts | 213° |
| 2026-04-15 05:33 | 54.28636 | 15.04731 | 36284 ft | 453 kts | 213° |
| 2026-04-15 05:34 | 54.23100 | 14.99498 | 36282 ft | 456 kts | 213° |
| 2026-04-15 05:34 | 54.17540 | 14.94262 | 36284 ft | 457 kts | 213° |
| 2026-04-15 05:35 | 54.11969 | 14.89024 | 36298 ft | 458 kts | 213° |
| 2026-04-15 05:35 | 54.06388 | 14.83793 | 36278 ft | 458 kts | 213° |
| 2026-04-15 05:36 | 54.00787 | 14.78572 | 36282 ft | 459 kts | 213° |
| 2026-04-15 05:36 | 53.95181 | 14.73353 | 36298 ft | 460 kts | 213° |
| 2026-04-15 05:37 | 53.89564 | 14.68150 | 36302 ft | 460 kts | 213° |
| 2026-04-15 05:37 | 53.83941 | 14.62947 | 36284 ft | 461 kts | 213° |
| 2026-04-15 05:38 | 53.78312 | 14.57746 | 36290 ft | 462 kts | 213° |
| 2026-04-15 05:38 | 53.72666 | 14.52561 | 36298 ft | 462 kts | 213° |
| 2026-04-15 05:39 | 53.67010 | 14.47380 | 36309 ft | 463 kts | 213° |
| 2026-04-15 05:39 | 53.61348 | 14.42201 | 36289 ft | 463 kts | 212° |
| 2026-04-15 05:40 | 53.55676 | 14.37040 | 36293 ft | 464 kts | 212° |
| 2026-04-15 05:40 | 53.50098 | 14.31761 | 36300 ft | 461 kts | 219° |
| 2026-04-15 05:41 | 53.44921 | 14.25461 | 36310 ft | 460 kts | 220° |
| 2026-04-15 05:41 | 53.39735 | 14.19167 | 36300 ft | 460 kts | 220° |
| 2026-04-15 05:42 | 53.34537 | 14.12897 | 36303 ft | 461 kts | 220° |
| 2026-04-15 05:42 | 53.29326 | 14.06634 | 36311 ft | 461 kts | 220° |
| 2026-04-15 05:43 | 53.24109 | 14.00371 | 36316 ft | 462 kts | 220° |
| 2026-04-15 05:43 | 53.18884 | 13.94119 | 36318 ft | 462 kts | 219° |
| 2026-04-15 05:44 | 53.13650 | 13.87887 | 36295 ft | 463 kts | 220° |
| 2026-04-15 05:44 | 53.08402 | 13.81646 | 36296 ft | 464 kts | 220° |
| 2026-04-15 05:45 | 53.03144 | 13.75402 | 36297 ft | 465 kts | 220° |
| 2026-04-15 05:45 | 52.97873 | 13.69171 | 36304 ft | 466 kts | 220° |
| 2026-04-15 05:46 | 52.92587 | 13.62944 | 36293 ft | 466 kts | 219° |
| 2026-04-15 05:46 | 52.87294 | 13.56735 | 36303 ft | 467 kts | 219° |
| 2026-04-15 05:47 | 52.81987 | 13.50522 | 36308 ft | 467 kts | 219° |
| 2026-04-15 05:47 | 52.76681 | 13.44316 | 36313 ft | 468 kts | 219° |
| 2026-04-15 05:48 | 52.71401 | 13.38157 | 36320 ft | 468 kts | 219° |
| 2026-04-15 05:48 | 52.66080 | 13.31986 | 36318 ft | 468 kts | 219° |
| 2026-04-15 05:49 | 52.60749 | 13.25832 | 36325 ft | 468 kts | 219° |
| 2026-04-15 05:49 | 52.56278 | 13.20678 | 36328 ft | 468 kts | 219° |
| 2026-04-15 05:50 | 52.50944 | 13.14539 | 36310 ft | 468 kts | 219° |
| 2026-04-15 05:51 | 52.42928 | 13.05350 | 36304 ft | 469 kts | 219° |
| 2026-04-15 05:51 | 52.37575 | 12.99242 | 36296 ft | 469 kts | 219° |
| 2026-04-15 05:52 | 52.32244 | 12.93185 | 36297 ft | 470 kts | 219° |
| 2026-04-15 05:52 | 52.26874 | 12.87081 | 36288 ft | 471 kts | 219° |
| 2026-04-15 05:53 | 52.21488 | 12.80981 | 36302 ft | 472 kts | 219° |
| 2026-04-15 05:53 | 52.16086 | 12.74893 | 36306 ft | 472 kts | 219° |
| 2026-04-15 05:54 | 52.10686 | 12.68810 | 36310 ft | 472 kts | 219° |
| 2026-04-15 05:54 | 52.05275 | 12.62734 | 36292 ft | 473 kts | 219° |
| 2026-04-15 05:55 | 51.99852 | 12.56676 | 36293 ft | 473 kts | 219° |
| 2026-04-15 05:55 | 51.94424 | 12.50632 | 36302 ft | 474 kts | 219° |
| 2026-04-15 05:56 | 51.89090 | 12.44401 | 36310 ft | 469 kts | 226° |
| 2026-04-15 05:56 | 51.84271 | 12.37298 | 36308 ft | 469 kts | 227° |
| 2026-04-15 05:57 | 51.79435 | 12.30212 | 36304 ft | 470 kts | 226° |
| 2026-04-15 05:57 | 51.74587 | 12.23143 | 36318 ft | 470 kts | 226° |
| 2026-04-15 05:58 | 51.69728 | 12.16078 | 36298 ft | 470 kts | 227° |
| 2026-04-15 05:58 | 51.64858 | 12.09018 | 36286 ft | 471 kts | 227° |
| 2026-04-15 05:59 | 51.60714 | 12.01060 | 36288 ft | 460 kts | 243° |
| 2026-04-15 05:59 | 51.57236 | 11.92413 | 36294 ft | 461 kts | 243° |
| 2026-04-15 06:00 | 51.53720 | 11.83786 | 36300 ft | 462 kts | 242° |
| 2026-04-15 06:00 | 51.50184 | 11.75164 | 36304 ft | 462 kts | 242° |
| 2026-04-15 06:01 | 51.46647 | 11.66547 | 36308 ft | 463 kts | 242° |
| 2026-04-15 06:01 | 51.43077 | 11.57953 | 36300 ft | 464 kts | 241° |
| 2026-04-15 06:02 | 51.39301 | 11.49619 | 36292 ft | 466 kts | 239° |
| 2026-04-15 06:02 | 51.35378 | 11.41337 | 36302 ft | 467 kts | 239° |
| 2026-04-15 06:03 | 51.31469 | 11.33034 | 36302 ft | 467 kts | 239° |
| 2026-04-15 06:03 | 51.27598 | 11.24710 | 36299 ft | 467 kts | 239° |
| 2026-04-15 06:03 | 51.25657 | 11.20526 | 35707 ft | 470 kts | 239° |
| 2026-04-15 06:04 | 51.23715 | 11.16348 | 35082 ft | 468 kts | 240° |
| 2026-04-15 06:04 | 51.21770 | 11.12178 | 34486 ft | 468 kts | 240° |
| 2026-04-15 06:04 | 51.19823 | 11.08013 | 33834 ft | 468 kts | 240° |
| 2026-04-15 06:04 | 51.17871 | 11.03848 | 33167 ft | 470 kts | 239° |
| 2026-04-15 06:05 | 51.15907 | 10.99668 | 32510 ft | 472 kts | 239° |
| 2026-04-15 06:05 | 51.13932 | 10.95476 | 31848 ft | 474 kts | 239° |
| 2026-04-15 06:05 | 51.11946 | 10.91273 | 31219 ft | 476 kts | 238° |
| 2026-04-15 06:05 | 51.09950 | 10.87055 | 30614 ft | 478 kts | 238° |
| 2026-04-15 06:06 | 51.07946 | 10.82818 | 29945 ft | 480 kts | 237° |
| 2026-04-15 06:06 | 51.05933 | 10.78568 | 29228 ft | 481 kts | 237° |
| 2026-04-15 06:06 | 51.03916 | 10.74319 | 28541 ft | 482 kts | 237° |
| 2026-04-15 06:06 | 51.01897 | 10.70071 | 27855 ft | 482 kts | 236° |
| 2026-04-15 06:07 | 50.99875 | 10.65817 | 27213 ft | 483 kts | 236° |
| 2026-04-15 06:07 | 50.97850 | 10.61563 | 26573 ft | 483 kts | 236° |
| 2026-04-15 06:07 | 50.95820 | 10.57313 | 25946 ft | 483 kts | 236° |
| 2026-04-15 06:07 | 50.93782 | 10.53071 | 25332 ft | 484 kts | 235° |
| 2026-04-15 06:08 | 50.91741 | 10.48830 | 24731 ft | 484 kts | 235° |
| 2026-04-15 06:08 | 50.89698 | 10.44593 | 24150 ft | 484 kts | 234° |
| 2026-04-15 06:08 | 50.87653 | 10.40352 | 23508 ft | 484 kts | 234° |
| 2026-04-15 06:08 | 50.85611 | 10.36111 | 22816 ft | 483 kts | 234° |
| 2026-04-15 06:09 | 50.83595 | 10.31922 | 22165 ft | 473 kts | 234° |
| 2026-04-15 06:09 | 50.81611 | 10.27810 | 21555 ft | 467 kts | 234° |
| 2026-04-15 06:09 | 50.79651 | 10.23755 | 20949 ft | 462 kts | 234° |
| 2026-04-15 06:09 | 50.77707 | 10.19741 | 20352 ft | 458 kts | 234° |
| 2026-04-15 06:10 | 50.75779 | 10.15765 | 19767 ft | 454 kts | 234° |
| 2026-04-15 06:10 | 50.73866 | 10.11824 | 19194 ft | 450 kts | 234° |
| 2026-04-15 06:10 | 50.71970 | 10.07920 | 18632 ft | 446 kts | 234° |
| 2026-04-15 06:10 | 50.70087 | 10.04057 | 17986 ft | 442 kts | 234° |
| 2026-04-15 06:11 | 50.68221 | 10.00232 | 17361 ft | 437 kts | 234° |
| 2026-04-15 06:11 | 50.66393 | 9.96439 | 16728 ft | 432 kts | 234° |
| 2026-04-15 06:11 | 50.64594 | 9.92683 | 16125 ft | 427 kts | 234° |
| 2026-04-15 06:11 | 50.62966 | 9.88895 | 15529 ft | 420 kts | 242° |
| 2026-04-15 06:12 | 50.61602 | 9.84856 | 14948 ft | 416 kts | 243° |
| 2026-04-15 06:12 | 50.60255 | 9.80863 | 14371 ft | 411 kts | 243° |
| 2026-04-15 06:12 | 50.58827 | 9.77017 | 13751 ft | 405 kts | 235° |
| 2026-04-15 06:12 | 50.57151 | 9.73480 | 13302 ft | 402 kts | 234° |
| 2026-04-15 06:13 | 50.55481 | 9.69963 | 12996 ft | 401 kts | 234° |
| 2026-04-15 06:13 | 50.53808 | 9.66455 | 12684 ft | 400 kts | 233° |
| 2026-04-15 06:13 | 50.52137 | 9.62965 | 12376 ft | 399 kts | 233° |
| 2026-04-15 06:13 | 50.50466 | 9.59489 | 12070 ft | 398 kts | 233° |
| 2026-04-15 06:14 | 50.48800 | 9.56022 | 11769 ft | 397 kts | 233° |
| 2026-04-15 06:14 | 50.47138 | 9.52564 | 11460 ft | 396 kts | 233° |
| 2026-04-15 06:14 | 50.45480 | 9.49121 | 11249 ft | 395 kts | 233° |
| 2026-04-15 06:14 | 50.43826 | 9.45685 | 11268 ft | 395 kts | 233° |
| 2026-04-15 06:15 | 50.42167 | 9.42248 | 11272 ft | 395 kts | 233° |
| 2026-04-15 06:15 | 50.40505 | 9.38808 | 11272 ft | 395 kts | 233° |
| 2026-04-15 06:15 | 50.38847 | 9.35376 | 11271 ft | 395 kts | 233° |
| 2026-04-15 06:15 | 50.37218 | 9.32013 | 11265 ft | 376 kts | 233° |
| 2026-04-15 06:16 | 50.35685 | 9.28859 | 11268 ft | 353 kts | 233° |
| 2026-04-15 06:16 | 50.34240 | 9.25897 | 11270 ft | 332 kts | 233° |
| 2026-04-15 06:16 | 50.32881 | 9.23115 | 11271 ft | 313 kts | 233° |
| 2026-04-15 06:16 | 50.31597 | 9.20489 | 11269 ft | 296 kts | 233° |
| 2026-04-15 06:17 | 50.30352 | 9.17939 | 11271 ft | 294 kts | 233° |
| 2026-04-15 06:17 | 50.29115 | 9.15396 | 11180 ft | 293 kts | 234° |
| 2026-04-15 06:17 | 50.27976 | 9.12759 | 11031 ft | 292 kts | 239° |
| 2026-04-15 06:17 | 50.26993 | 9.09984 | 10875 ft | 292 kts | 244° |
| 2026-04-15 06:18 | 50.26166 | 9.07093 | 10736 ft | 292 kts | 249° |
| 2026-04-15 06:18 | 50.25466 | 9.04120 | 10591 ft | 291 kts | 250° |
| 2026-04-15 06:18 | 50.24772 | 9.01144 | 10447 ft | 291 kts | 250° |
| 2026-04-15 06:18 | 50.24076 | 8.98173 | 10306 ft | 291 kts | 250° |
| 2026-04-15 06:19 | 50.23380 | 8.95211 | 10148 ft | 291 kts | 250° |
| 2026-04-15 06:19 | 50.22682 | 8.92251 | 9960 ft | 290 kts | 250° |
| 2026-04-15 06:19 | 50.21988 | 8.89303 | 9746 ft | 289 kts | 250° |
| 2026-04-15 06:19 | 50.21298 | 8.86366 | 9538 ft | 288 kts | 250° |
| 2026-04-15 06:20 | 50.20611 | 8.83441 | 9325 ft | 286 kts | 250° |
| 2026-04-15 06:20 | 50.19926 | 8.80530 | 9120 ft | 285 kts | 250° |
| 2026-04-15 06:20 | 50.19242 | 8.77627 | 8916 ft | 284 kts | 250° |
| 2026-04-15 06:20 | 50.18561 | 8.74741 | 8708 ft | 283 kts | 250° |
| 2026-04-15 06:21 | 50.17879 | 8.71864 | 8504 ft | 282 kts | 250° |
| 2026-04-15 06:21 | 50.17203 | 8.69000 | 8300 ft | 281 kts | 250° |
| 2026-04-15 06:21 | 50.16531 | 8.66144 | 8106 ft | 280 kts | 250° |
| 2026-04-15 06:21 | 50.15861 | 8.63297 | 7902 ft | 279 kts | 250° |
| 2026-04-15 06:22 | 50.15195 | 8.60465 | 7699 ft | 278 kts | 250° |
| 2026-04-15 06:22 | 50.14530 | 8.57641 | 7506 ft | 277 kts | 250° |
| 2026-04-15 06:22 | 50.13867 | 8.54826 | 7306 ft | 276 kts | 250° |
| 2026-04-15 06:22 | 50.13207 | 8.52025 | 7109 ft | 275 kts | 250° |
| 2026-04-15 06:23 | 50.12550 | 8.49234 | 6911 ft | 274 kts | 250° |
| 2026-04-15 06:23 | 50.11895 | 8.46453 | 6717 ft | 273 kts | 250° |
| 2026-04-15 06:23 | 50.11241 | 8.43680 | 6503 ft | 272 kts | 250° |
| 2026-04-15 06:23 | 50.10590 | 8.40908 | 6288 ft | 273 kts | 250° |
| 2026-04-15 06:24 | 50.09939 | 8.38132 | 6086 ft | 273 kts | 250° |
| 2026-04-15 06:24 | 50.09288 | 8.35361 | 5865 ft | 273 kts | 250° |
| 2026-04-15 06:24 | 50.08635 | 8.32587 | 5671 ft | 273 kts | 250° |
| 2026-04-15 06:24 | 50.07982 | 8.29819 | 5466 ft | 273 kts | 250° |
| 2026-04-15 06:25 | 50.07328 | 8.27048 | 5262 ft | 273 kts | 250° |
| 2026-04-15 06:25 | 50.06673 | 8.24276 | 5053 ft | 273 kts | 250° |
| 2026-04-15 06:25 | 50.06025 | 8.21504 | 4838 ft | 272 kts | 250° |
| 2026-04-15 06:25 | 50.05390 | 8.18736 | 4640 ft | 271 kts | 250° |
| 2026-04-15 06:26 | 50.04760 | 8.15976 | 4430 ft | 270 kts | 250° |
| 2026-04-15 06:26 | 50.04018 | 8.13316 | 4222 ft | 267 kts | 233° |
| 2026-04-15 06:26 | 50.02678 | 8.11462 | 4060 ft | 253 kts | 203° |
| 2026-04-15 06:26 | 50.01037 | 8.10946 | 3997 ft | 233 kts | 172° |
| 2026-04-15 06:27 | 49.99515 | 8.11373 | 4005 ft | 213 kts | 165° |
| 2026-04-15 06:27 | 49.98143 | 8.11899 | 4004 ft | 192 kts | 164° |
| 2026-04-15 06:27 | 49.96893 | 8.12486 | 4016 ft | 186 kts | 150° |
| 2026-04-15 06:27 | 49.96054 | 8.13929 | 4006 ft | 183 kts | 113° |
| 2026-04-15 06:28 | 49.95667 | 8.15803 | 4000 ft | 182 kts | 105° |
| 2026-04-15 06:28 | 49.95354 | 8.17706 | 4001 ft | 182 kts | 104° |
| 2026-04-15 06:28 | 49.95054 | 8.19612 | 4005 ft | 182 kts | 102° |
| 2026-04-15 06:28 | 49.95077 | 8.21562 | 3999 ft | 182 kts | 76° |
| 2026-04-15 06:29 | 49.95500 | 8.23388 | 4002 ft | 182 kts | 69° |
| 2026-04-15 06:29 | 49.95949 | 8.25225 | 4005 ft | 182 kts | 69° |
| 2026-04-15 06:29 | 49.96396 | 8.27064 | 3911 ft | 182 kts | 69° |
| 2026-04-15 06:29 | 49.96841 | 8.28895 | 3696 ft | 181 kts | 70° |
| 2026-04-15 06:30 | 49.97284 | 8.30725 | 3479 ft | 181 kts | 70° |
| 2026-04-15 06:30 | 49.97726 | 8.32549 | 3227 ft | 180 kts | 70° |
| 2026-04-15 06:30 | 49.98165 | 8.34365 | 2990 ft | 179 kts | 70° |
| 2026-04-15 06:30 | 49.98603 | 8.36176 | 2749 ft | 179 kts | 70° |
| 2026-04-15 06:31 | 49.99040 | 8.37986 | 2502 ft | 179 kts | 71° |
| 2026-04-15 06:31 | 49.99475 | 8.39787 | 2265 ft | 178 kts | 71° |
| 2026-04-15 06:31 | 49.99895 | 8.41526 | 2015 ft | 162 kts | 71° |
| 2026-04-15 06:31 | 50.00271 | 8.43084 | 1796 ft | 148 kts | 71° |
| 2026-04-15 06:32 | 50.00625 | 8.44556 | 1603 ft | 143 kts | 71° |
| 2026-04-15 06:32 | 50.00972 | 8.46000 | 1413 ft | 142 kts | 70° |
| 2026-04-15 06:32 | 50.01318 | 8.47439 | 1204 ft | 142 kts | 70° |
| 2026-04-15 06:32 | 50.01667 | 8.48873 | 1026 ft | 142 kts | 69° |
| 2026-04-15 06:33 | 50.02012 | 8.50315 | 815 ft | 142 kts | 69° |
| 2026-04-15 06:33 | 50.02351 | 8.51755 | 628 ft | 141 kts | 69° |
| 2026-04-15 06:33 | 50.02692 | 8.53184 | 435 ft | 141 kts | 68° |
| 2026-04-15 06:33 | 50.03032 | 8.54577 | 333 ft | 129 kts | 69° |
| 2026-04-15 06:34 | 50.03292 | 8.55669 | 351 ft | 83 kts | 69° |
| 2026-04-15 06:34 | 50.03447 | 8.56316 | 357 ft | 55 kts | 70° |
| 2026-04-15 06:34 | 50.03565 | 8.56798 | 358 ft | 36 kts | 64° |
| 2026-04-15 06:34 | 50.03683 | 8.57060 | 354 ft | 24 kts | 43° |
| 2026-04-15 06:35 | 50.03802 | 8.57216 | 359 ft | 22 kts | 39° |
| 2026-04-15 06:35 | 50.03879 | 8.57313 | 361 ft | 21 kts | 39° |
| 2026-04-15 06:35 | 50.03971 | 8.57481 | 369 ft | 20 kts | 67° |
| 2026-04-15 06:35 | 50.04021 | 8.57686 | 367 ft | 20 kts | 69° |
| 2026-04-15 06:36 | 50.04065 | 8.57847 | 366 ft | 17 kts | 68° |
| 2026-04-15 06:36 | 50.04111 | 8.58043 | 373 ft | 20 kts | 70° |
| 2026-04-15 06:36 | 50.04209 | 8.58184 | 368 ft | 21 kts | 26° |
| 2026-04-15 06:36 | 50.04347 | 8.58168 | 370 ft | 21 kts | 339° |
| 2026-04-15 06:37 | 50.04475 | 8.58093 | 365 ft | 17 kts | 340° |
| 2026-04-15 06:37 | 50.04526 | 8.57953 | 367 ft | 17 kts | 252° |
| 2026-04-15 06:37 | 50.04484 | 8.57773 | 368 ft | 18 kts | 248° |
| 2026-04-15 06:37 | 50.04437 | 8.57583 | 366 ft | 20 kts | 251° |
| 2026-04-15 06:38 | 50.04386 | 8.57361 | 362 ft | 22 kts | 250° |
| 2026-04-15 06:38 | 50.04330 | 8.57129 | 361 ft | 23 kts | 249° |
| 2026-04-15 06:38 | 50.04283 | 8.56936 | 365 ft | 13 kts | 250° |
| 2026-04-15 06:38 | 50.04313 | 8.56828 | 360 ft | 12 kts | 342° |
| 2026-04-15 06:39 | 50.04402 | 8.56843 | 362 ft | 14 kts | 9° |
| 2026-04-15 06:39 | 50.04504 | 8.56872 | 359 ft | 16 kts | 13° |
| 2026-04-15 06:39 | 50.04599 | 8.56909 | 358 ft | 10 kts | 14° |
| 2026-04-15 06:39 | 50.04638 | 8.56866 | 356 ft | 7 kts | 295° |
| 2026-04-15 06:40 | 50.04653 | 8.56818 | 360 ft | 3 kts | 295° |
| 2026-04-15 06:40 | 50.04655 | 8.56810 | 361 ft | 0 kts | 295° |